Time;durP1;ratioP1;P1;durP2;ratioP2;P2;SDS_P1;SDS_P2;PMS_P1;PMS_P2;Temp;Humidity;BMP_temperature;BMP_pressure;BME280_temperature;BME280_humidity;BME280_pressure;Samples;Min_cycle;Max_cycle;Signal;HPM_P1;HPM_P2
2024/01/08 00:02:16;;;;;;;;;;;;;;;;;;5086438;28;19958;-58
2024/01/08 00:04:42;;;;;;;;;;;;;;;;;;5081578;28;19917;-58
2024/01/08 00:07:08;;;;;;;;;;;;;;;;;;5094050;28;19912;-57
2024/01/08 00:09:33;;;;;;;;;;;;;;;;;;5092708;28;19965;-58
2024/01/08 00:11:59;;;;;;;;;;;;;;;;;;5091873;28;19912;-58
2024/01/08 00:14:25;;;;;;;;;;;;;;;;;;5085113;28;19986;-58
2024/01/08 00:16:51;;;;;;;;;;;;;;;;;;5084406;28;19918;-58
2024/01/08 00:19:17;;;;;;;;;;;;;;;;;;5091044;28;19981;-55
2024/01/08 00:21:43;;;;;;;;;;;;;;;;;;5085499;28;20384;-58
2024/01/08 00:24:09;;;;;;;;;;;;;;;;;;5089330;28;20016;-57
2024/01/08 00:26:35;;;;;;;;;;;;;;;;;;5085544;28;20357;-58
2024/01/08 00:29:01;;;;;;;;;;;;;;;;;;5078682;28;19983;-58
2024/01/08 00:31:27;;;;;;;;;;;;;;;;;;5090181;28;19935;-58
2024/01/08 00:33:53;;;;;;;;;;;;;;;;;;5078219;28;20347;-58
2024/01/08 00:36:19;;;;;;;;;;;;;;;;;;5093203;28;19958;-58
2024/01/08 00:38:45;;;;;;;;;;;;;;;;;;5083424;28;19912;-58
2024/01/08 00:41:11;;;;;;;;;;;;;;;;;;5092021;28;20004;-58
2024/01/08 00:43:37;;;;;;;;;;;;;;;;;;5093625;28;19959;-57
2024/01/08 00:46:03;;;;;;;;;;;;;;;;;;5089653;28;20390;-58
2024/01/08 00:48:29;;;;;;;;;;;;;;;;;;5092582;28;20003;-58
2024/01/08 00:50:55;;;;;;;;;;;;;;;;;;5088123;28;20002;-58
2024/01/08 00:53:21;;;;;;;;;;;;;;;;;;5091798;28;19919;-59
2024/01/08 00:55:46;;;;;;;;;;;;;;;;;;5092876;28;19912;-57
2024/01/08 00:58:12;;;;;;;;;;;;;;;;;;5092120;28;19948;-58
2024/01/08 01:00:38;;;;;;;;;;;;;;;;;;5092637;28;20324;-58
2024/01/08 01:03:04;;;;;;;;;;;;;;;;;;5078374;28;19947;-51
2024/01/08 01:05:30;;;;;;;;;;;;;;;;;;5081068;28;19919;-52
2024/01/08 01:07:56;;;;;;;;;;;;;;;;;;5078527;28;19916;-55
2024/01/08 01:10:22;;;;;;;;;;;;;;;;;;5079605;28;20296;-53
2024/01/08 01:12:48;;;;;;;;;;;;;;;;;;5092464;28;20337;-53
2024/01/08 01:15:14;;;;;;;;;;;;;;;;;;5091518;28;19912;-53
2024/01/08 01:17:40;;;;;;;;;;;;;;;;;;5090001;28;19955;-54
2024/01/08 01:20:06;;;;;;;;;;;;;;;;;;5084282;28;20351;-53
2024/01/08 01:22:32;;;;;;;;;;;;;;;;;;5081929;28;19963;-54
2024/01/08 01:24:58;;;;;;;;;;;;;;;;;;5086276;28;19955;-55
2024/01/08 01:27:24;;;;;;;;;;;;;;;;;;5091385;28;20320;-53
2024/01/08 01:29:50;;;;;;;;;;;;;;;;;;5087087;28;20006;-51
2024/01/08 01:32:15;;;;;;;;;;;;;;;;;;5081045;28;19916;-53
2024/01/08 01:34:41;;;;;;;;;;;;;;;;;;5083158;28;19916;-54
2024/01/08 01:37:07;;;;;;;;;;;;;;;;;;5091595;28;19918;-52
2024/01/08 01:39:33;;;;;;;;;;;;;;;;;;5076886;28;19917;-54
2024/01/08 01:41:59;;;;;;;;;;;;;;;;;;5082597;28;19920;-53
2024/01/08 01:44:25;;;;;;;;;;;;;;;;;;5076044;28;20456;-54
2024/01/08 01:46:51;;;;;;;;;;;;;;;;;;5079926;28;19924;-52
2024/01/08 01:49:17;;;;;;;;;;;;;;;;;;5091859;28;20326;-54
2024/01/08 01:51:43;;;;;;;;;;;;;;;;;;5092077;28;19994;-53
2024/01/08 01:54:09;;;;;;;;;;;;;;;;;;5091699;28;20010;-55
2024/01/08 01:56:35;;;;;;;;;;;;;;;;;;5088718;28;20432;-53
2024/01/08 01:59:01;;;;;;;;;;;;;;;;;;5088051;28;19912;-53
2024/01/08 02:01:27;;;;;;;;;;;;;;;;;;5090812;28;19950;-58
2024/01/08 02:03:53;;;;;;;;;;;;;;;;;;5091505;28;19916;-58
2024/01/08 02:06:19;;;;;;;;;;;;;;;;;;5092077;28;19918;-58
2024/01/08 02:08:45;;;;;;;;;;;;;;;;;;5085891;28;19912;-58
2024/01/08 02:11:11;;;;;;;;;;;;;;;;;;5076354;28;19916;-59
2024/01/08 02:13:36;;;;;;;;;;;;;;;;;;5072375;28;19958;-58
2024/01/08 02:16:02;;;;;;;;;;;;;;;;;;5082299;28;20364;-58
2024/01/08 02:18:28;;;;;;;;;;;;;;;;;;5091569;28;20058;-57
2024/01/08 02:20:54;;;;;;;;;;;;;;;;;;5089695;28;20007;-58
2024/01/08 02:23:20;;;;;;;;;;;;;;;;;;5091964;28;20388;-57
2024/01/08 02:25:46;;;;;;;;;;;;;;;;;;5089685;28;19959;-58
2024/01/08 02:28:12;;;;;;;;;;;;;;;;;;5080434;28;19966;-58
2024/01/08 02:30:38;;;;;;;;;;;;;;;;;;5091800;28;19912;-58
2024/01/08 02:33:04;;;;;;;;;;;;;;;;;;5092199;28;20287;-58
2024/01/08 02:35:30;;;;;;;;;;;;;;;;;;5091259;28;20002;-58
2024/01/08 02:37:56;;;;;;;;;;;;;;;;;;5092280;28;19977;-58
2024/01/08 02:40:22;;;;;;;;;;;;;;;;;;5088428;28;20000;-58
2024/01/08 02:42:47;;;;;;;;;;;;;;;;;;5091888;28;19912;-58
2024/01/08 02:45:13;;;;;;;;;;;;;;;;;;5092142;28;19953;-58
2024/01/08 02:47:40;;;;;;;;;;;;;;;;;;5091943;28;19957;-58
2024/01/08 02:50:06;;;;;;;;;;;;;;;;;;5091602;28;19974;-58
2024/01/08 02:52:32;;;;;;;;;;;;;;;;;;5091100;28;20382;-57
2024/01/08 02:54:58;;;;;;;;;;;;;;;;;;5090529;28;19961;-58
2024/01/08 02:57:23;;;;;;;;;;;;;;;;;;5091246;28;19916;-58
2024/01/08 02:59:49;;;;;;;;;;;;;;;;;;5084720;28;19951;-57
2024/01/08 03:02:15;;;;;;;;;;;;;;;;;;5091193;28;19916;-58
2024/01/08 03:04:41;;;;;;;;;;;;;;;;;;5092064;28;19919;-58
2024/01/08 03:07:07;;;;;;;;;;;;;;;;;;5089846;28;19909;-58
2024/01/08 03:09:33;;;;;;;;;;;;;;;;;;5072966;28;19944;-58
2024/01/08 03:11:59;;;;;;;;;;;;;;;;;;5090252;28;20342;-58
2024/01/08 03:14:25;;;;;;;;;;;;;;;;;;5091247;28;20368;-58
2024/01/08 03:16:51;;;;;;;;;;;;;;;;;;5089359;28;19966;-58
2024/01/08 03:19:17;;;;;;;;;;;;;;;;;;5081256;28;20006;-57
2024/01/08 03:21:43;;;;;;;;;;;;;;;;;;5088071;28;19938;-58
2024/01/08 03:24:08;;;;;;;;;;;;;;;;;;5086950;28;19963;-58
2024/01/08 03:26:34;;;;;;;;;;;;;;;;;;5095191;28;19958;-58
2024/01/08 03:29:00;;;;;;;;;;;;;;;;;;5092821;28;20654;-57
2024/01/08 03:31:26;;;;;;;;;;;;;;;;;;5093242;28;19941;-58
2024/01/08 03:33:52;;;;;;;;;;;;;;;;;;5095036;28;19920;-58
2024/01/08 03:36:18;;;;;;;;;;;;;;;;;;5087370;28;19920;-58
2024/01/08 03:38:44;;;;;;;;;;;;;;;;;;5075163;28;19919;-58
2024/01/08 03:41:10;;;;;;;;;;;;;;;;;;5084174;28;19919;-58
2024/01/08 03:43:36;;;;;;;;;;;;;;;;;;5075046;28;19924;-58
2024/01/08 03:46:02;;;;;;;;;;;;;;;;;;5078504;28;19920;-58
2024/01/08 03:48:28;;;;;;;;;;;;;;;;;;5092107;28;19935;-58
2024/01/08 03:50:54;;;;;;;;;;;;;;;;;;5082268;28;20001;-58
2024/01/08 03:53:20;;;;;;;;;;;;;;;;;;5085684;28;19920;-58
2024/01/08 03:55:45;;;;;;;;;;;;;;;;;;5091063;28;19912;-58
2024/01/08 03:58:11;;;;;;;;;;;;;;;;;;5093792;28;19916;-57
2024/01/08 04:00:37;;;;;;;;;;;;;;;;;;5093113;28;20016;-57
2024/01/08 04:03:03;;;;;;;;;;;;;;;;;;5088889;28;19917;-57
2024/01/08 04:05:29;;;;;;;;;;;;;;;;;;5077090;28;19912;-58
2024/01/08 04:07:55;;;;;;;;;;;;;;;;;;5088411;28;19966;-58
2024/01/08 04:10:21;;;;;;;;;;;;;;;;;;5093606;28;19957;-58
2024/01/08 04:12:47;;;;;;;;;;;;;;;;;;5079117;28;19965;-58
2024/01/08 04:15:13;;;;;;;;;;;;;;;;;;5080179;28;19912;-57
2024/01/08 04:17:38;;;;;;;;;;;;;;;;;;5074704;28;20249;-58
2024/01/08 04:20:04;;;;;;;;;;;;;;;;;;5078361;28;19955;-58
2024/01/08 04:22:30;;;;;;;;;;;;;;;;;;5087452;28;20006;-58
2024/01/08 04:24:56;;;;;;;;;;;;;;;;;;5085004;28;20371;-55
2024/01/08 04:27:22;;;;;;;;;;;;;;;;;;5089848;28;19916;-54
2024/01/08 04:29:48;;;;;;;;;;;;;;;;;;5087435;28;19932;-53
2024/01/08 04:32:14;;;;;;;;;;;;;;;;;;5080917;28;19912;-53
2024/01/08 04:34:40;;;;;;;;;;;;;;;;;;5086202;28;19969;-51
2024/01/08 04:37:06;;;;;;;;;;;;;;;;;;5090976;28;19951;-53
2024/01/08 04:39:32;;;;;;;;;;;;;;;;;;5083107;28;19912;-53
2024/01/08 04:41:58;;;;;;;;;;;;;;;;;;5093194;28;20000;-54
2024/01/08 04:44:24;;;;;;;;;;;;;;;;;;5092582;28;20548;-54
2024/01/08 04:46:49;;;;;;;;;;;;;;;;;;5092954;28;19912;-54
2024/01/08 04:49:17;;;;;;;;;;;;;;;;;;5092048;28;19912;-53
2024/01/08 04:51:43;;;;;;;;;;;;;;;;;;5092811;28;19985;-54
2024/01/08 04:54:09;;;;;;;;;;;;;;;;;;5089224;28;20371;-53
2024/01/08 04:56:35;;;;;;;;;;;;;;;;;;5089994;28;19923;-53
2024/01/08 04:59:01;;;;;;;;;;;;;;;;;;5092493;28;20579;-53
2024/01/08 05:01:27;;;;;;;;;;;;;;;;;;5081682;28;20002;-54
2024/01/08 05:03:53;;;;;;;;;;;;;;;;;;5079778;28;20011;-55
2024/01/08 05:06:19;;;;;;;;;;;;;;;;;;5082924;28;19918;-53
2024/01/08 05:08:45;;;;;;;;;;;;;;;;;;5081325;28;20009;-53
2024/01/08 05:11:11;;;;;;;;;;;;;;;;;;5089440;28;19935;-53
2024/01/08 05:13:36;;;;;;;;;;;;;;;;;;5086502;28;19926;-53
2024/01/08 05:16:02;;;;;;;;;;;;;;;;;;5087255;28;20003;-52
2024/01/08 05:18:28;;;;;;;;;;;;;;;;;;5089258;28;19959;-53
2024/01/08 05:20:54;;;;;;;;;;;;;;;;;;5085396;28;19916;-53
2024/01/08 05:23:20;;;;;;;;;;;;;;;;;;5086571;28;20122;-54
2024/01/08 05:25:46;;;;;;;;;;;;;;;;;;5087774;28;20399;-53
2024/01/08 05:28:12;;;;;;;;;;;;;;;;;;5089474;28;19962;-53
2024/01/08 05:30:38;;;;;;;;;;;;;;;;;;5089228;28;20020;-54
2024/01/08 05:33:04;;;;;;;;;;;;;;;;;;5090005;28;19995;-57
2024/01/08 05:35:30;;;;;;;;;;;;;;;;;;5091790;28;19908;-57
2024/01/08 05:37:56;;;;;;;;;;;;;;;;;;5088427;28;19977;-57
2024/01/08 05:40:22;;;;;;;;;;;;;;;;;;5091344;28;19912;-57
2024/01/08 05:42:48;;;;;;;;;;;;;;;;;;5092250;28;20376;-57
2024/01/08 05:45:14;;;;;;;;;;;;;;;;;;5083896;28;19944;-57
2024/01/08 05:47:42;;;;;;;;;;;;;;;;;;5087764;28;20436;-57
2024/01/08 05:50:08;;;;;;;;;;;;;;;;;;5091742;28;19908;-57
2024/01/08 05:52:33;;;;;;;;;;;;;;;;;;5090859;28;19960;-56
2024/01/08 05:54:59;;;;;;;;;;;;;;;;;;5084898;28;19913;-57
2024/01/08 05:57:25;;;;;;;;;;;;;;;;;;5088881;28;19957;-57
2024/01/08 05:59:51;;;;;;;;;;;;;;;;;;5089908;28;19951;-57
2024/01/08 06:02:17;;;;;;;;;;;;;;;;;;5081046;28;19912;-57
2024/01/08 06:04:43;;;;;;;;;;;;;;;;;;5092239;28;19959;-57
2024/01/08 06:07:09;;;;;;;;;;;;;;;;;;5092123;28;20382;-57
2024/01/08 06:09:35;;;;;;;;;;;;;;;;;;5082366;28;20429;-57
2024/01/08 06:12:01;;;;;;;;;;;;;;;;;;5087323;28;19916;-57
2024/01/08 06:14:27;;;;;;;;;;;;;;;;;;5092415;28;19912;-57
2024/01/08 06:16:53;;;;;;;;;;;;;;;;;;5090569;28;20009;-57
2024/01/08 06:19:19;;;;;;;;;;;;;;;;;;5087729;28;20372;-57
2024/01/08 06:21:45;;;;;;;;;;;;;;;;;;5091697;28;19995;-57
2024/01/08 06:24:10;;;;;;;;;;;;;;;;;;5091825;28;20294;-58
2024/01/08 06:26:36;;;;;;;;;;;;;;;;;;5090436;28;20419;-57
2024/01/08 06:29:03;;;;;;;;;;;;;;;;;;5092086;28;20003;-57
2024/01/08 06:31:29;;;;;;;;;;;;;;;;;;5091571;28;20279;-57
2024/01/08 06:33:55;;;;;;;;;;;;;;;;;;5082166;28;19923;-56
2024/01/08 06:36:21;;;;;;;;;;;;;;;;;;5089905;28;20006;-57
2024/01/08 06:38:47;;;;;;;;;;;;;;;;;;5092120;28;19943;-57
2024/01/08 06:41:13;;;;;;;;;;;;;;;;;;5091651;28;19963;-57
2024/01/08 06:43:38;;;;;;;;;;;;;;;;;;5088322;28;19916;-53
2024/01/08 06:46:04;;;;;;;;;;;;;;;;;;5090129;28;19947;-55
2024/01/08 06:48:30;;;;;;;;;;;;;;;;;;5086310;28;20000;-52
2024/01/08 06:50:56;;;;;;;;;;;;;;;;;;5091190;28;20394;-54
2024/01/08 06:53:22;;;;;;;;;;;;;;;;;;5090002;28;19912;-52
2024/01/08 06:55:50;;;;;;;;;;;;;;;;;;5090624;28;19908;-53
2024/01/08 06:58:16;;;;;;;;;;;;;;;;;;5094422;28;20006;-50
2024/01/08 07:00:41;;;;;;;;;;;;;;;;;;5094737;28;20002;-54
2024/01/08 07:03:07;;;;;;;;;;;;;;;;;;5095507;28;20399;-53
2024/01/08 07:05:33;;;;;;;;;;;;;;;;;;5095690;28;19908;-55
2024/01/08 07:07:59;;;;;;;;;;;;;;;;;;5095843;28;19915;-54
2024/01/08 07:10:25;;;;;;;;;;;;;;;;;;5093255;28;20394;-54
2024/01/08 07:12:51;;;;;;;;;;;;;;;;;;5082080;28;19912;-53
2024/01/08 07:15:17;;;;;;;;;;;;;;;;;;5090858;28;19908;-53
2024/01/08 07:17:43;;;;;;;;;;;;;;;;;;5094711;28;19931;-55
2024/01/08 07:20:09;;;;;;;;;;;;;;;;;;5094302;28;20020;-54
2024/01/08 07:22:35;;;;;;;;;;;;;;;;;;5094676;28;19966;-54
2024/01/08 07:25:02;;;;;;;;;;;;;;;;;;5091983;28;19916;-53
2024/01/08 07:27:28;;;;;;;;;;;;;;;;;;5088420;28;20018;-54
2024/01/08 07:29:54;;;;;;;;;;;;;;;;;;5093849;28;20483;-53
2024/01/08 07:32:19;;;;;;;;;;;;;;;;;;5094345;28;20290;-54
2024/01/08 07:34:45;;;;;;;;;;;;;;;;;;5094449;28;19969;-53
2024/01/08 07:37:11;;;;;;;;;;;;;;;;;;5089508;28;19999;-54
2024/01/08 07:39:37;;;;;;;;;;;;;;;;;;5093917;28;20365;-52
2024/01/08 07:42:03;;;;;;;;;;;;;;;;;;5094388;28;19908;-54
2024/01/08 07:44:29;;;;;;;;;;;;;;;;;;5086451;28;19920;-52
2024/01/08 07:46:55;;;;;;;;;;;;;;;;;;5094390;28;19908;-54
2024/01/08 07:49:21;;;;;;;;;;;;;;;;;;5090883;28;19947;-54
2024/01/08 07:51:47;;;;;;;;;;;;;;;;;;5094093;28;19923;-54
2024/01/08 07:54:13;;;;;;;;;;;;;;;;;;5092952;28;19953;-52
2024/01/08 07:56:39;;;;;;;;;;;;;;;;;;5085906;28;19998;-56
2024/01/08 07:59:05;;;;;;;;;;;;;;;;;;5092952;28;19942;-54
2024/01/08 08:01:31;;;;;;;;;;;;;;;;;;5093587;28;19912;-53
2024/01/08 08:03:57;;;;;;;;;;;;;;;;;;5093679;28;20265;-54
2024/01/08 08:06:23;;;;;;;;;;;;;;;;;;5092645;28;19908;-52
2024/01/08 08:08:49;;;;;;;;;;;;;;;;;;5092420;28;19915;-53
2024/01/08 08:11:15;;;;;;;;;;;;;;;;;;5089975;28;19999;-54
2024/01/08 08:13:41;;;;;;;;;;;;;;;;;;5087073;28;20452;-53
2024/01/08 08:16:07;;;;;;;;;;;;;;;;;;5093552;28;19912;-55
2024/01/08 08:18:33;;;;;;;;;;;;;;;;;;5093502;28;20248;-53
2024/01/08 08:20:59;;;;;;;;;;;;;;;;;;5093129;28;19908;-53
2024/01/08 08:23:25;;;;;;;;;;;;;;;;;;5093195;28;20007;-51
2024/01/08 08:25:51;;;;;;;;;;;;;;;;;;5093367;28;20313;-53
2024/01/08 08:28:18;;;;;;;;;;;;;;;;;;5092949;28;20303;-52
2024/01/08 08:30:43;;;;;;;;;;;;;;;;;;5091732;28;20836;-53
2024/01/08 08:33:09;;;;;;;;;;;;;;;;;;5093036;28;19908;-52
2024/01/08 08:35:36;;;;;;;;;;;;;;;;;;5091588;28;20007;-54
2024/01/08 08:38:02;;;;;;;;;;;;;;;;;;5087096;28;19908;-53
2024/01/08 08:40:28;;;;;;;;;;;;;;;;;;5092728;28;19908;-53
2024/01/08 08:42:54;;;;;;;;;;;;;;;;;;5093051;28;20006;-53
2024/01/08 08:45:20;;;;;;;;;;;;;;;;;;5087426;28;19967;-54
2024/01/08 08:47:46;;;;;;;;;;;;;;;;;;5084543;28;19955;-55
2024/01/08 08:50:15;;;;;;;;;;;;;;;;;;5092643;28;20322;-51
2024/01/08 08:52:43;;;;;;;;;;;;;;;;;;5092855;28;19909;-50
2024/01/08 08:55:09;;;;;;;;;;;;;;;;;;5092665;28;19929;-50
2024/01/08 08:57:35;;;;;;;;;;;;;;;;;;5090972;28;20006;-53
2024/01/08 09:00:01;;;;;;;;;;;;;;;;;;5089854;28;19936;-52
2024/01/08 09:02:27;;;;;;;;;;;;;;;;;;5092437;28;19912;-54
2024/01/08 09:04:53;;;;;;;;;;;;;;;;;;5092842;28;19951;-53
2024/01/08 09:07:22;;;;;;;;;;;;;;;;;;5092552;28;20431;-53
2024/01/08 09:09:48;;;;;;;;;;;;;;;;;;5092058;28;19919;-54
2024/01/08 09:12:14;;;;;;;;;;;;;;;;;;5083563;28;20284;-53
2024/01/08 09:14:39;;;;;;;;;;;;;;;;;;5090973;28;20015;-51
2024/01/08 09:17:05;;;;;;;;;;;;;;;;;;5092267;28;20441;-50
2024/01/08 09:19:31;;;;;;;;;;;;;;;;;;5091774;28;19916;-52
2024/01/08 09:21:57;;;;;;;;;;;;;;;;;;5092197;28;20324;-53
2024/01/08 09:24:23;;;;;;;;;;;;;;;;;;5091924;28;19918;-54
2024/01/08 09:26:49;;;;;;;;;;;;;;;;;;5092209;28;19918;-52
2024/01/08 09:29:15;;;;;;;;;;;;;;;;;;5091685;28;19920;-53
2024/01/08 09:31:41;;;;;;;;;;;;;;;;;;5087296;28;19966;-53
2024/01/08 09:34:07;;;;;;;;;;;;;;;;;;5092062;28;19912;-54
2024/01/08 09:36:33;;;;;;;;;;;;;;;;;;5086163;28;19973;-53
2024/01/08 09:38:59;;;;;;;;;;;;;;;;;;5089532;28;20068;-52
2024/01/08 09:41:25;;;;;;;;;;;;;;;;;;5091479;28;19908;-52
2024/01/08 09:43:52;;;;;;;;;;;;;;;;;;5092135;28;19958;-53
2024/01/08 09:46:18;;;;;;;;;;;;;;;;;;5092102;28;20284;-54
2024/01/08 09:48:44;;;;;;;;;;;;;;;;;;5091770;28;19908;-51
2024/01/08 09:51:10;;;;;;;;;;;;;;;;;;5091124;28;20287;-53
2024/01/08 09:53:36;;;;;;;;;;;;;;;;;;5091461;28;19912;-52
2024/01/08 09:56:02;;;;;;;;;;;;;;;;;;5090102;28;20011;-53
2024/01/08 09:58:28;;;;;;;;;;;;;;;;;;5091531;28;20014;-54
2024/01/08 10:00:54;;;;;;;;;;;;;;;;;;5091081;28;20284;-52
2024/01/08 10:03:20;;;;;;;;;;;;;;;;;;5091415;28;19947;-53
2024/01/08 10:05:46;;;;;;;;;;;;;;;;;;5090394;28;19908;-52
2024/01/08 10:08:12;;;;;;;;;;;;;;;;;;5082865;28;19995;-54
2024/01/08 10:10:38;;;;;;;;;;;;;;;;;;5091379;28;19995;-54
2024/01/08 10:13:04;;;;;;;;;;;;;;;;;;5082904;28;20403;-52
2024/01/08 10:15:30;;;;;;;;;;;;;;;;;;5091845;28;19908;-55
2024/01/08 10:17:59;;;;;;;;;;;;;;;;;;5091504;28;19912;-57
2024/01/08 10:20:25;;;;;;;;;;;;;;;;;;5091215;28;19908;-56
2024/01/08 10:22:52;;;;;;;;;;;;;;;;;;5088628;28;20027;-56
2024/01/08 10:25:18;;;;;;;;;;;;;;;;;;5091747;28;19962;-57
2024/01/08 10:27:43;;;;;;;;;;;;;;;;;;5091530;28;20016;-57
2024/01/08 10:30:09;;;;;;;;;;;;;;;;;;5090834;28;19919;-57
2024/01/08 10:32:35;;;;;;;;;;;;;;;;;;5095493;28;19915;-57
2024/01/08 10:35:01;;;;;;;;;;;;;;;;;;5095257;28;19908;-57
2024/01/08 10:37:27;;;;;;;;;;;;;;;;;;5095769;28;19935;-57
2024/01/08 10:39:54;;;;;;;;;;;;;;;;;;5094155;28;20364;-56
2024/01/08 10:42:20;;;;;;;;;;;;;;;;;;5095674;28;20283;-56
2024/01/08 10:44:46;;;;;;;;;;;;;;;;;;5081909;28;19912;-56
2024/01/08 10:47:12;;;;;;;;;;;;;;;;;;5093820;28;19996;-57
2024/01/08 10:49:38;;;;;;;;;;;;;;;;;;5094750;28;20482;-57
2024/01/08 10:52:04;;;;;;;;;;;;;;;;;;5095073;28;19912;-56
2024/01/08 10:54:29;;;;;;;;;;;;;;;;;;5095342;28;19992;-57
2024/01/08 10:56:57;;;;;;;;;;;;;;;;;;5087250;28;20333;-57
2024/01/08 10:59:23;;;;;;;;;;;;;;;;;;5094408;28;19991;-57
2024/01/08 11:01:49;;;;;;;;;;;;;;;;;;5095303;28;20356;-56
2024/01/08 11:04:15;;;;;;;;;;;;;;;;;;5094541;28;19947;-56
2024/01/08 11:06:41;;;;;;;;;;;;;;;;;;5086082;28;19919;-56
2024/01/08 11:09:09;;;;;;;;;;;;;;;;;;5094479;28;19918;-56
2024/01/08 11:11:35;;;;;;;;;;;;;;;;;;5088772;28;20003;-57
2024/01/08 11:14:03;;;;;;;;;;;;;;;;;;5093303;28;20317;-57
2024/01/08 11:16:29;;;;;;;;;;;;;;;;;;5094978;28;19915;-56
2024/01/08 11:18:55;;;;;;;;;;;;;;;;;;5094334;28;20284;-57
2024/01/08 11:21:21;;;;;;;;;;;;;;;;;;5094325;28;19998;-57
2024/01/08 11:23:47;;;;;;;;;;;;;;;;;;5094655;28;20305;-57
2024/01/08 11:26:14;;;;;;;;;;;;;;;;;;5094716;28;19989;-55
2024/01/08 11:28:39;;;;;;;;;;;;;;;;;;5093224;28;19924;-56
2024/01/08 11:31:05;;;;;;;;;;;;;;;;;;5093131;28;19959;-57
2024/01/08 11:33:31;;;;;;;;;;;;;;;;;;5093977;28;20313;-57
2024/01/08 11:35:58;;;;;;;;;;;;;;;;;;5094612;28;19926;-57
2024/01/08 11:38:26;;;;;;;;;;;;;;;;;;5081074;28;19916;-56
2024/01/08 11:40:52;;;;;;;;;;;;;;;;;;5093868;28;20354;-57
2024/01/08 11:43:18;;;;;;;;;;;;;;;;;;5094182;28;19916;-57
2024/01/08 11:45:44;;;;;;;;;;;;;;;;;;5094319;28;19962;-56
2024/01/08 11:48:10;;;;;;;;;;;;;;;;;;5092064;28;19960;-57
2024/01/08 11:50:36;;;;;;;;;;;;;;;;;;5092492;28;20367;-57
2024/01/08 11:53:02;;;;;;;;;;;;;;;;;;5089745;28;19953;-56
2024/01/08 11:55:28;;;;;;;;;;;;;;;;;;5094092;28;19944;-56
2024/01/08 11:57:54;;;;;;;;;;;;;;;;;;5079985;28;19917;-57
2024/01/08 12:00:20;;;;;;;;;;;;;;;;;;5081403;28;19922;-57
2024/01/08 12:02:46;;;;;;;;;;;;;;;;;;5080212;28;20287;-57
2024/01/08 12:05:12;;;;;;;;;;;;;;;;;;5094105;28;19916;-57
2024/01/08 12:07:38;;;;;;;;;;;;;;;;;;5090473;28;19948;-57
2024/01/08 12:10:04;;;;;;;;;;;;;;;;;;5093593;28;19999;-57
2024/01/08 12:12:30;;;;;;;;;;;;;;;;;;5086233;28;19914;-57
2024/01/08 12:14:56;;;;;;;;;;;;;;;;;;5093572;28;19908;-57
2024/01/08 12:17:22;;;;;;;;;;;;;;;;;;5092318;28;19919;-56
2024/01/08 12:19:48;;;;;;;;;;;;;;;;;;5093168;28;20386;-57
2024/01/08 12:22:14;;;;;;;;;;;;;;;;;;5093720;28;19995;-56
2024/01/08 12:24:40;;;;;;;;;;;;;;;;;;5091168;28;19963;-57
2024/01/08 12:27:06;;;;;;;;;;;;;;;;;;5087012;28;20336;-58
2024/01/08 12:29:32;;;;;;;;;;;;;;;;;;5086018;28;20455;-56
2024/01/08 12:31:58;;;;;;;;;;;;;;;;;;5091051;28;20047;-57
2024/01/08 12:34:24;;;;;;;;;;;;;;;;;;5087395;28;20286;-57
2024/01/08 12:36:50;;;;;;;;;;;;;;;;;;5083808;28;19916;-57
2024/01/08 12:39:16;;;;;;;;;;;;;;;;;;5089758;28;20012;-57
2024/01/08 12:41:42;;;;;;;;;;;;;;;;;;5093015;28;20007;-55
2024/01/08 12:44:08;;;;;;;;;;;;;;;;;;5090775;28;19918;-57
2024/01/08 12:46:34;;;;;;;;;;;;;;;;;;5090661;28;20526;-57
2024/01/08 12:49:01;;;;;;;;;;;;;;;;;;5092742;28;19915;-57
2024/01/08 12:51:27;;;;;;;;;;;;;;;;;;5092977;28;20376;-57
2024/01/08 12:53:53;;;;;;;;;;;;;;;;;;5089922;28;20039;-57
2024/01/08 12:56:19;;;;;;;;;;;;;;;;;;5086212;28;19912;-57
2024/01/08 12:58:45;;;;;;;;;;;;;;;;;;5081289;28;20004;-57
2024/01/08 13:01:11;;;;;;;;;;;;;;;;;;5092544;28;19912;-56
2024/01/08 13:03:37;;;;;;;;;;;;;;;;;;5091332;28;19926;-57
2024/01/08 13:06:03;;;;;;;;;;;;;;;;;;5089152;28;20423;-57
2024/01/08 13:08:30;;;;;;;;;;;;;;;;;;5085461;28;19960;-56
2024/01/08 13:10:56;;;;;;;;;;;;;;;;;;5083403;28;19919;-57
2024/01/08 13:13:22;;;;;;;;;;;;;;;;;;5091025;28;19908;-56
2024/01/08 13:15:48;;;;;;;;;;;;;;;;;;5092421;28;19965;-57
2024/01/08 13:18:14;;;;;;;;;;;;;;;;;;5089657;28;19912;-55
2024/01/08 13:20:40;;;;;;;;;;;;;;;;;;5089718;28;20342;-57
2024/01/08 13:23:06;;;;;;;;;;;;;;;;;;5086260;28;19940;-57
2024/01/08 13:25:32;;;;;;;;;;;;;;;;;;5087805;28;19920;-57
2024/01/08 13:27:57;;;;;;;;;;;;;;;;;;5088747;28;20002;-57
2024/01/08 13:30:23;;;;;;;;;;;;;;;;;;5090844;28;19956;-56
2024/01/08 13:32:49;;;;;;;;;;;;;;;;;;5083809;28;19912;-57
2024/01/08 13:35:15;;;;;;;;;;;;;;;;;;5090482;28;19912;-55
2024/01/08 13:37:41;;;;;;;;;;;;;;;;;;5091182;28;19915;-57
2024/01/08 13:40:07;;;;;;;;;;;;;;;;;;5089983;28;19916;-57
2024/01/08 13:42:35;;;;;;;;;;;;;;;;;;5087529;28;19958;-55
2024/01/08 13:45:04;;;;;;;;;;;;;;;;;;5083283;28;19923;-56
2024/01/08 13:47:30;;;;;;;;;;;;;;;;;;5092114;28;19909;-57
2024/01/08 13:49:56;;;;;;;;;;;;;;;;;;5091568;28;19908;-56
2024/01/08 13:52:22;;;;;;;;;;;;;;;;;;5079046;28;19964;-56
2024/01/08 13:54:48;;;;;;;;;;;;;;;;;;5090895;28;20396;-56
2024/01/08 13:57:14;;;;;;;;;;;;;;;;;;5091521;28;19947;-55
2024/01/08 13:59:39;;;;;;;;;;;;;;;;;;5086496;28;19957;-56
2024/01/08 14:02:06;;;;;;;;;;;;;;;;;;5091702;28;19909;-56
2024/01/08 14:04:32;;;;;;;;;;;;;;;;;;5091524;28;19920;-55
2024/01/08 14:06:59;;;;;;;;;;;;;;;;;;5080290;28;19908;-55
2024/01/08 14:09:25;;;;;;;;;;;;;;;;;;5080148;28;19912;-56
2024/01/08 14:11:51;;;;;;;;;;;;;;;;;;5091482;28;20003;-56
2024/01/08 14:14:17;;;;;;;;;;;;;;;;;;5088081;28;19916;-55
2024/01/08 14:16:43;;;;;;;;;;;;;;;;;;5085103;28;19912;-55
2024/01/08 14:19:10;;;;;;;;;;;;;;;;;;5087738;28;19913;-56
2024/01/08 14:21:35;;;;;;;;;;;;;;;;;;5091202;28;19938;-55
2024/01/08 14:24:02;;;;;;;;;;;;;;;;;;5091622;28;19959;-56
2024/01/08 14:26:28;;;;;;;;;;;;;;;;;;5091552;28;19916;-56
2024/01/08 14:28:54;;;;;;;;;;;;;;;;;;5091553;28;19924;-56
2024/01/08 14:31:21;;;;;;;;;;;;;;;;;;5091163;28;19908;-57
2024/01/08 14:33:47;;;;;;;;;;;;;;;;;;5090686;28;19912;-53
2024/01/08 14:36:13;;;;;;;;;;;;;;;;;;5088144;28;19939;-56
2024/01/08 14:38:39;;;;;;;;;;;;;;;;;;5091334;28;19909;-57
2024/01/08 14:41:05;;;;;;;;;;;;;;;;;;5090965;28;19920;-56
2024/01/08 14:43:30;;;;;;;;;;;;;;;;;;5091304;28;19948;-57
2024/01/08 14:45:56;;;;;;;;;;;;;;;;;;5088494;28;19914;-56
2024/01/08 14:48:22;;;;;;;;;;;;;;;;;;5071042;28;19912;-55
2024/01/08 14:50:48;;;;;;;;;;;;;;;;;;5086056;28;19912;-56
2024/01/08 14:53:14;;;;;;;;;;;;;;;;;;5091876;28;20043;-57
2024/01/08 14:55:40;;;;;;;;;;;;;;;;;;5081663;28;19916;-56
2024/01/08 14:58:06;;;;;;;;;;;;;;;;;;5082982;28;19915;-56
2024/01/08 15:00:32;;;;;;;;;;;;;;;;;;5083681;28;20010;-57
2024/01/08 15:02:58;;;;;;;;;;;;;;;;;;5079092;28;20351;-56
2024/01/08 15:05:24;;;;;;;;;;;;;;;;;;5090793;28;19966;-57
2024/01/08 15:07:50;;;;;;;;;;;;;;;;;;5080980;28;20396;-56
2024/01/08 15:10:16;;;;;;;;;;;;;;;;;;5091029;28;20002;-57
2024/01/08 15:12:42;;;;;;;;;;;;;;;;;;5091010;28;20045;-57
2024/01/08 15:15:09;;;;;;;;;;;;;;;;;;5091091;28;20350;-57
2024/01/08 15:17:35;;;;;;;;;;;;;;;;;;5089110;28;19916;-57
2024/01/08 15:20:01;;;;;;;;;;;;;;;;;;5088300;28;19999;-57
2024/01/08 15:22:27;;;;;;;;;;;;;;;;;;5082051;28;19920;-57
2024/01/08 15:24:55;;;;;;;;;;;;;;;;;;5084784;28;19973;-57
2024/01/08 15:27:22;;;;;;;;;;;;;;;;;;5090747;28;19916;-56
2024/01/08 15:29:48;;;;;;;;;;;;;;;;;;5089511;28;19984;-57
2024/01/08 15:32:16;;;;;;;;;;;;;;;;;;5092420;28;20094;-56
2024/01/08 15:34:42;;;;;;;;;;;;;;;;;;5091178;28;19919;-55
2024/01/08 15:37:11;;;;;;;;;;;;;;;;;;5093758;28;21558;-57
2024/01/08 15:39:37;;;;;;;;;;;;;;;;;;5093748;28;19965;-55
2024/01/08 15:42:02;;;;;;;;;;;;;;;;;;5091187;28;19912;-56
2024/01/08 15:44:28;;;;;;;;;;;;;;;;;;5090938;28;19923;-56
2024/01/08 15:46:54;;;;;;;;;;;;;;;;;;5089775;28;19951;-56
2024/01/08 15:49:20;;;;;;;;;;;;;;;;;;5089589;28;19990;-57
2024/01/08 15:51:46;;;;;;;;;;;;;;;;;;5090894;28;19916;-57
2024/01/08 15:54:12;;;;;;;;;;;;;;;;;;5083067;28;20002;-57
2024/01/08 15:56:38;;;;;;;;;;;;;;;;;;5090223;28;19931;-57
2024/01/08 15:59:04;;;;;;;;;;;;;;;;;;5084664;28;19951;-56
2024/01/08 16:01:32;;;;;;;;;;;;;;;;;;5089439;28;20360;-57
2024/01/08 16:03:58;;;;;;;;;;;;;;;;;;5092127;28;19973;-58
2024/01/08 16:06:23;;;;;;;;;;;;;;;;;;5090203;28;19916;-57
2024/01/08 16:08:49;;;;;;;;;;;;;;;;;;5092700;28;19939;-58
2024/01/08 16:11:16;;;;;;;;;;;;;;;;;;5088312;28;19912;-57
2024/01/08 16:13:42;;;;;;;;;;;;;;;;;;5086253;28;19981;-58
2024/01/08 16:16:08;;;;;;;;;;;;;;;;;;5087088;28;20280;-58
2024/01/08 16:18:35;;;;;;;;;;;;;;;;;;5086204;28;19972;-58
2024/01/08 16:21:02;;;;;;;;;;;;;;;;;;5087791;28;19931;-57
2024/01/08 16:23:28;;;;;;;;;;;;;;;;;;5090138;28;19958;-57
2024/01/08 16:25:54;;;;;;;;;;;;;;;;;;5091909;28;19963;-58
2024/01/08 16:28:20;;;;;;;;;;;;;;;;;;5081786;28;19942;-58
2024/01/08 16:30:48;;;;;;;;;;;;;;;;;;5087730;28;19916;-57
2024/01/08 16:33:14;;;;;;;;;;;;;;;;;;5086305;28;19918;-57
2024/01/08 16:35:40;;;;;;;;;;;;;;;;;;5093763;28;19912;-58
2024/01/08 16:38:06;;;;;;;;;;;;;;;;;;5086097;28;19924;-57